createdAt,value
2017-11-01T00:01:45.672Z,8.43
2017-11-01T00:04:14.035Z,8.23
2017-11-01T00:06:42.331Z,12.80
2017-11-01T00:09:10.627Z,7.10
2017-11-01T00:11:38.948Z,8.33
2017-11-01T00:14:07.223Z,7.77
2017-11-01T00:16:35.498Z,7.70
2017-11-01T00:19:03.786Z,11.20
2017-11-01T00:21:32.081Z,11.70
2017-11-01T00:24:00.410Z,5.37
2017-11-01T00:26:28.683Z,5.50
2017-11-01T00:28:56.965Z,7.83
2017-11-01T00:31:25.292Z,5.30
2017-11-01T00:33:54.356Z,4.60
2017-11-01T00:36:22.622Z,4.13
2017-11-01T00:38:50.915Z,3.83
2017-11-01T00:41:19.232Z,7.63
2017-11-01T00:43:47.506Z,7.20
2017-11-01T00:46:15.787Z,6.20
2017-11-01T00:48:44.096Z,10.37
2017-11-01T00:51:12.376Z,12.73
2017-11-01T00:53:40.691Z,10.03
2017-11-01T00:56:09.738Z,12.10
2017-11-01T00:58:38.033Z,10.17
2017-11-01T01:01:06.311Z,7.07
2017-11-01T01:03:34.646Z,8.97
2017-11-01T01:06:02.956Z,13.23
2017-11-01T01:08:31.249Z,16.90
2017-11-01T01:10:59.567Z,17.83
2017-11-01T01:13:27.884Z,16.57
2017-11-01T01:15:56.219Z,28.50
2017-11-01T01:18:24.511Z,33.77
2017-11-01T01:20:52.801Z,27.53
2017-11-01T01:23:21.867Z,27.00
2017-11-01T01:25:50.156Z,40.43
2017-11-01T01:28:18.463Z,31.87
2017-11-01T01:30:46.783Z,40.13
2017-11-01T01:33:15.852Z,28.03
2017-11-01T01:35:44.139Z,20.57
2017-11-01T01:38:12.417Z,25.40
2017-11-01T01:40:40.716Z,30.67
2017-11-01T01:43:09.027Z,22.50
2017-11-01T01:45:37.323Z,24.87
2017-11-01T01:48:06.413Z,22.03
2017-11-01T01:50:34.727Z,24.93
2017-11-01T01:53:03.014Z,31.80
2017-11-01T01:55:32.096Z,31.23
2017-11-01T01:58:00.391Z,30.87
2017-11-01T02:00:28.680Z,43.20
2017-11-01T02:02:57.007Z,42.60
2017-11-01T02:05:25.308Z,34.60
2017-11-01T02:07:53.608Z,37.93
2017-11-01T02:10:21.899Z,28.40
2017-11-01T02:12:51.115Z,31.97
2017-11-01T02:15:19.403Z,26.40
2017-11-01T02:17:47.728Z,28.33
2017-11-01T02:20:16.087Z,119.37
2017-11-01T02:22:44.406Z,36.00
2017-11-01T02:25:12.775Z,30.93
2017-11-01T02:27:41.107Z,37.63
2017-11-01T02:30:10.277Z,29.70
2017-11-01T02:32:38.616Z,30.27
2017-11-01T02:35:06.988Z,25.93
2017-11-01T02:37:36.054Z,25.20
2017-11-01T02:40:04.457Z,22.33
2017-11-01T02:42:32.789Z,24.60
2017-11-01T02:45:01.843Z,20.27
2017-11-01T02:47:30.234Z,20.83
2017-11-01T02:49:58.651Z,18.20
2017-11-01T02:52:26.939Z,16.30
2017-11-01T02:54:55.271Z,18.60
2017-11-01T02:57:23.566Z,19.57
2017-11-01T02:59:51.879Z,26.90
2017-11-01T03:02:20.155Z,26.30
2017-11-01T03:04:48.460Z,24.50
2017-11-01T03:07:16.757Z,24.83
2017-11-01T03:09:45.043Z,30.57
2017-11-01T03:12:14.104Z,21.97
2017-11-01T03:14:42.438Z,29.17
2017-11-01T03:17:10.730Z,37.70
2017-11-01T03:19:39.044Z,29.37
2017-11-01T03:22:07.334Z,30.10
2017-11-01T03:24:35.642Z,31.60
2017-11-01T03:27:03.939Z,31.73
2017-11-01T03:29:32.244Z,29.73
2017-11-01T03:32:00.588Z,25.20
2017-11-01T03:34:28.886Z,29.53
2017-11-01T03:36:57.996Z,28.50
2017-11-01T03:39:27.077Z,35.83
2017-11-01T03:41:55.484Z,31.80
2017-11-01T03:44:24.617Z,26.30
2017-11-01T03:46:52.984Z,42.63
2017-11-01T03:49:21.366Z,34.73
2017-11-01T03:51:50.442Z,22.80
2017-11-01T03:54:18.758Z,19.70
2017-11-01T03:56:47.047Z,29.37
2017-11-01T03:59:15.368Z,23.03
2017-11-01T04:01:44.420Z,29.97
2017-11-01T04:04:12.735Z,25.47
2017-11-01T04:06:41.022Z,28.60
2017-11-01T04:09:09.466Z,28.83
2017-11-01T04:11:37.750Z,30.47
2017-11-01T04:14:06.054Z,40.70
2017-11-01T04:16:34.350Z,40.20
2017-11-01T04:19:18.406Z,37.37
2017-11-01T04:21:46.758Z,37.53
2017-11-01T04:24:15.050Z,37.13
2017-11-01T04:26:43.354Z,34.83
2017-11-01T04:29:12.399Z,46.27
2017-11-01T04:31:40.740Z,52.30
2017-11-01T04:34:09.080Z,36.60
2017-11-01T04:36:40.244Z,32.33
2017-11-01T04:39:08.606Z,32.53
2017-11-01T04:41:36.977Z,28.63
2017-11-01T04:44:06.090Z,34.93
2017-11-01T04:46:35.243Z,34.33
2017-11-01T04:49:04.339Z,54.20
2017-11-01T04:51:32.714Z,40.10
2017-11-01T04:54:03.304Z,41.47
2017-11-01T04:56:31.640Z,39.03
2017-11-01T04:58:59.954Z,48.40
2017-11-01T05:01:28.238Z,56.23
2017-11-01T05:03:56.607Z,68.67
2017-11-01T05:06:28.696Z,71.40
2017-11-01T05:08:57.831Z,61.70
2017-11-01T05:11:31.723Z,58.57
2017-11-01T05:14:03.875Z,63.30
2017-11-01T05:16:32.273Z,58.17
2017-11-01T05:19:00.657Z,50.03
2017-11-01T05:21:29.745Z,52.33
2017-11-01T05:23:58.086Z,63.87
2017-11-01T05:26:26.486Z,44.47
2017-11-01T05:28:54.865Z,63.23
2017-11-01T05:31:23.253Z,57.73
2017-11-01T05:33:51.597Z,68.07
2017-11-01T05:36:20.708Z,50.50
2017-11-01T05:38:49.005Z,65.37
2017-11-01T05:41:17.322Z,42.47
2017-11-01T05:43:46.413Z,42.40
2017-11-01T05:46:15.549Z,76.53
2017-11-01T05:48:43.914Z,53.77
2017-11-01T05:51:13.064Z,71.50
2017-11-01T05:53:41.441Z,63.03
2017-11-01T05:56:09.769Z,50.53
2017-11-01T05:58:38.919Z,62.13
2017-11-01T06:01:07.270Z,62.33
2017-11-01T06:03:35.655Z,89.97
2017-11-01T06:06:03.994Z,107.43
2017-11-01T06:08:32.386Z,109.67
2017-11-01T06:11:01.498Z,83.27
2017-11-01T06:13:29.841Z,98.70
2017-11-01T06:15:58.237Z,101.70
2017-11-01T06:18:27.348Z,81.33
2017-11-01T06:20:55.704Z,94.83
2017-11-01T06:23:24.041Z,97.80
2017-11-01T06:25:53.178Z,89.73
2017-11-01T06:28:21.540Z,95.37
2017-11-01T06:30:50.648Z,96.10
2017-11-01T06:33:19.782Z,119.10
2017-11-01T06:35:48.130Z,97.67
2017-11-01T06:38:16.519Z,93.27
2017-11-01T06:40:45.697Z,111.27
2017-11-01T06:43:14.104Z,102.70
2017-11-01T06:45:42.574Z,102.03
2017-11-01T06:48:11.079Z,104.93
2017-11-01T06:50:39.435Z,83.00
2017-11-01T06:53:08.548Z,85.87
2017-11-01T06:55:36.878Z,68.67
2017-11-01T06:58:05.255Z,73.73
2017-11-01T07:00:38.217Z,57.83
2017-11-01T07:03:06.570Z,62.20
2017-11-01T07:05:34.943Z,56.10
2017-11-01T07:08:03.338Z,60.40
2017-11-01T07:10:31.720Z,78.17
2017-11-01T07:13:00.127Z,80.70
2017-11-01T07:15:28.520Z,61.20
2017-11-01T07:17:56.886Z,72.43
2017-11-01T07:20:25.275Z,71.77
2017-11-01T07:22:53.665Z,69.30
2017-11-01T07:25:22.029Z,61.20
2017-11-01T07:27:50.358Z,46.23
2017-11-01T07:30:18.722Z,40.00
2017-11-01T07:32:47.056Z,46.40
2017-11-01T07:35:15.410Z,45.63
2017-11-01T07:37:43.784Z,55.17
2017-11-01T07:40:12.199Z,46.57
2017-11-01T07:42:40.679Z,42.67
2017-11-01T07:45:09.010Z,48.37
2017-11-01T07:47:37.331Z,40.50
2017-11-01T07:50:06.426Z,44.50
2017-11-01T07:52:34.743Z,31.97
2017-11-01T07:55:03.036Z,28.13
2017-11-01T07:57:31.360Z,31.17
2017-11-01T07:59:59.657Z,28.07
2017-11-01T08:02:27.954Z,31.33
2017-11-01T08:04:56.317Z,31.53
2017-11-01T08:07:24.605Z,30.53
2017-11-01T08:09:52.924Z,26.80
2017-11-01T08:12:21.215Z,26.60
2017-11-01T08:14:49.580Z,30.43
2017-11-01T08:19:52.472Z,43.60
2017-11-01T08:22:20.971Z,49.57
2017-11-01T08:24:49.337Z,32.83
2017-11-01T08:27:18.419Z,40.50
2017-11-01T08:29:46.710Z,42.87
2017-11-01T08:32:15.002Z,41.23
2017-11-01T08:34:43.324Z,35.70
2017-11-01T08:37:12.379Z,23.67
2017-11-01T08:39:40.714Z,24.60
2017-11-01T08:42:09.780Z,22.93
2017-11-01T08:44:38.831Z,28.00
2017-11-01T08:47:08.180Z,22.70
2017-11-01T08:49:36.469Z,25.43
2017-11-01T08:52:04.765Z,26.17
2017-11-01T08:54:33.060Z,20.50
2017-11-01T08:57:01.405Z,21.77
2017-11-01T08:59:30.456Z,19.97
2017-11-01T09:01:58.791Z,16.23
2017-11-01T09:04:27.851Z,15.57
2017-11-01T09:06:56.134Z,14.13
2017-11-01T09:09:24.456Z,12.27
2017-11-01T09:11:52.747Z,17.73
2017-11-01T09:14:21.820Z,12.43
2017-11-01T09:16:50.102Z,18.57
2017-11-01T09:19:19.298Z,16.43
2017-11-01T09:21:47.580Z,18.70
2017-11-01T09:24:15.869Z,12.27
2017-11-01T09:26:44.152Z,22.20
2017-11-01T09:29:12.484Z,11.87
2017-11-01T09:31:40.779Z,17.50
2017-11-01T09:34:09.086Z,16.10
2017-11-01T09:36:37.369Z,15.53
2017-11-01T09:39:05.696Z,12.33
2017-11-01T09:41:34.364Z,10.40
2017-11-01T09:44:02.688Z,13.70
2017-11-01T09:46:30.988Z,14.00
2017-11-01T09:48:59.280Z,16.37
2017-11-01T09:51:27.599Z,14.40
2017-11-01T09:53:55.878Z,19.33
2017-11-01T09:56:24.464Z,13.93
2017-11-01T09:58:52.778Z,12.77
2017-11-01T10:01:21.093Z,13.63
2017-11-01T10:03:50.147Z,16.20
2017-11-01T10:06:18.620Z,15.00
2017-11-01T10:08:47.235Z,22.37
2017-11-01T10:11:15.865Z,12.80
2017-11-01T10:13:44.417Z,18.20
2017-11-01T10:16:13.055Z,17.60
2017-11-01T10:18:41.648Z,17.97
2017-11-01T10:21:10.260Z,14.20
2017-11-01T10:23:38.766Z,20.10
2017-11-01T10:26:07.219Z,14.83
2017-11-01T10:28:36.522Z,15.00
2017-11-01T10:31:05.149Z,18.13
2017-11-01T10:33:33.652Z,15.40
2017-11-01T10:36:02.321Z,13.83
2017-11-01T10:38:30.854Z,13.97
2017-11-01T10:40:59.179Z,18.93
2017-11-01T10:43:27.495Z,14.47
2017-11-01T10:45:55.787Z,20.93
2017-11-01T10:48:24.091Z,13.70
2017-11-01T10:50:52.411Z,19.70
2017-11-01T10:53:20.754Z,26.13
2017-11-01T10:55:49.064Z,14.87
2017-11-01T10:58:17.340Z,17.33
2017-11-01T11:00:45.629Z,17.63
2017-11-01T11:03:13.915Z,15.83
2017-11-01T11:05:42.220Z,14.53
2017-11-01T11:08:10.534Z,12.07
2017-11-01T11:10:38.839Z,17.93
2017-11-01T11:13:07.145Z,18.27
2017-11-01T11:15:35.446Z,14.50
2017-11-01T11:18:03.737Z,13.20
2017-11-01T11:20:32.052Z,11.00
2017-11-01T11:23:01.111Z,13.83
2017-11-01T11:25:29.400Z,11.17
2017-11-01T11:27:57.715Z,17.13
2017-11-01T11:30:26.016Z,12.90
2017-11-01T11:32:54.336Z,16.87
2017-11-01T11:35:23.422Z,12.37
2017-11-01T11:37:52.508Z,15.73
2017-11-01T11:40:20.807Z,18.13
2017-11-01T11:42:49.959Z,15.77
2017-11-01T11:45:18.279Z,14.30
2017-11-01T11:47:46.614Z,14.77
2017-11-01T11:50:15.674Z,16.23
2017-11-01T11:52:43.998Z,18.43
2017-11-01T11:55:12.427Z,17.63
2017-11-01T11:57:40.738Z,13.77
2017-11-01T12:00:09.034Z,10.70
2017-11-01T12:02:37.329Z,10.40
2017-11-01T12:05:05.648Z,16.03
2017-11-01T12:07:34.850Z,17.23
2017-11-01T12:10:03.179Z,17.03
2017-11-01T12:12:31.491Z,11.90
2017-11-01T12:14:59.808Z,10.90
2017-11-01T12:17:28.103Z,12.37
2017-11-01T12:19:56.394Z,6.40
2017-11-01T12:22:24.684Z,13.60
2017-11-01T12:24:53.019Z,8.70
2017-11-01T12:27:21.318Z,23.10
2017-11-01T12:29:49.674Z,9.47
2017-11-01T12:32:18.730Z,16.60
2017-11-01T12:34:47.044Z,7.90
2017-11-01T12:37:15.343Z,12.10
2017-11-01T12:39:43.661Z,15.07
2017-11-01T12:42:11.982Z,7.67
2017-11-01T12:44:40.306Z,10.23
2017-11-01T12:47:08.647Z,8.40
2017-11-01T12:49:36.942Z,12.63
2017-11-01T12:52:05.243Z,13.30
2017-11-01T12:54:33.544Z,22.83
2017-11-01T12:57:01.832Z,14.00
2017-11-01T12:59:30.132Z,13.53
2017-11-01T13:01:58.465Z,21.53
2017-11-01T13:04:26.752Z,13.03
2017-11-01T13:06:55.045Z,14.03
2017-11-01T13:09:23.378Z,13.67
2017-11-01T13:11:51.659Z,9.53
2017-11-01T13:14:20.080Z,15.70
2017-11-01T13:16:48.376Z,12.17
2017-11-01T13:19:16.667Z,10.27
2017-11-01T13:21:45.803Z,13.23
2017-11-01T13:24:14.089Z,6.70
2017-11-01T13:26:42.400Z,19.10
2017-11-01T13:29:11.459Z,8.77
2017-11-01T13:31:39.760Z,10.97
2017-11-01T13:34:08.852Z,12.07
2017-11-01T13:36:37.133Z,6.97
2017-11-01T13:39:05.450Z,10.97
2017-11-01T13:41:34.536Z,24.77
2017-11-01T13:44:03.759Z,8.50
2017-11-01T13:46:32.815Z,8.57
2017-11-01T13:49:01.131Z,13.80
2017-11-01T13:51:29.434Z,8.93
2017-11-01T13:53:57.743Z,9.97
2017-11-01T13:56:26.058Z,10.73
2017-11-01T13:58:54.366Z,13.17
2017-11-01T14:01:22.685Z,6.80
2017-11-01T14:03:50.976Z,13.57
2017-11-01T14:06:19.267Z,7.20
2017-11-01T14:08:48.350Z,16.10
2017-11-01T14:11:16.650Z,10.30
2017-11-01T14:13:44.964Z,5.20
2017-11-01T14:16:14.051Z,18.70
2017-11-01T14:18:42.384Z,6.10
2017-11-01T14:21:10.923Z,9.07
2017-11-01T14:23:39.214Z,11.80
2017-11-01T14:26:07.536Z,14.53
2017-11-01T14:28:36.593Z,14.00
2017-11-01T14:31:04.972Z,15.57
2017-11-01T14:33:33.260Z,9.53
2017-11-01T14:36:01.546Z,11.07
2017-11-01T14:38:29.840Z,12.33
2017-11-01T14:40:58.130Z,14.20
2017-11-01T14:43:26.463Z,9.67
2017-11-01T14:45:54.781Z,9.27
2017-11-01T14:48:23.068Z,8.40
2017-11-01T14:50:51.428Z,12.37
2017-11-01T14:53:19.751Z,13.73
2017-11-01T14:55:48.078Z,10.97
2017-11-01T14:58:16.400Z,5.60
2017-11-01T15:00:44.723Z,9.30
2017-11-01T15:03:13.018Z,5.77
2017-11-01T15:05:41.370Z,8.63
2017-11-01T15:08:10.442Z,8.77
2017-11-01T15:10:38.754Z,9.77
2017-11-01T15:13:07.053Z,7.93
2017-11-01T15:15:35.370Z,15.33
2017-11-01T15:18:03.666Z,5.00
2017-11-01T15:20:31.975Z,12.40
2017-11-01T15:23:00.295Z,11.60
2017-11-01T15:25:28.630Z,7.33
2017-11-01T15:27:56.957Z,13.20
2017-11-01T15:30:25.275Z,12.03
2017-11-01T15:32:54.363Z,7.17
2017-11-01T15:35:22.661Z,11.20
2017-11-01T15:37:50.950Z,9.53
2017-11-01T15:40:19.268Z,14.23
2017-11-01T15:42:47.567Z,10.50
2017-11-01T15:45:15.879Z,12.53
2017-11-01T15:47:44.178Z,16.77
2017-11-01T15:50:12.514Z,11.50
2017-11-01T15:52:41.592Z,10.80
2017-11-01T15:55:09.880Z,8.03
2017-11-01T15:57:38.223Z,5.43
2017-11-01T16:00:06.502Z,5.90
2017-11-01T16:02:35.625Z,15.77
2017-11-01T16:05:03.942Z,8.27
2017-11-01T16:07:32.291Z,8.23
2017-11-01T16:10:00.737Z,10.77
2017-11-01T16:12:29.334Z,12.30
2017-11-01T16:14:58.783Z,11.30
2017-11-01T16:17:27.233Z,8.40
2017-11-01T16:19:55.806Z,7.50
2017-11-01T16:22:24.415Z,8.00
2017-11-01T16:24:53.036Z,11.03
2017-11-01T16:27:21.589Z,9.73
2017-11-01T16:29:50.208Z,9.70
2017-11-01T16:32:18.739Z,11.30
2017-11-01T16:34:47.276Z,5.80
2017-11-01T16:37:15.725Z,8.73
2017-11-01T16:39:44.245Z,15.73
2017-11-01T16:42:12.872Z,8.53
2017-11-01T16:44:41.378Z,6.83
2017-11-01T16:47:09.983Z,10.20
2017-11-01T16:49:38.603Z,9.87
2017-11-01T16:52:07.178Z,10.13
2017-11-01T16:54:36.663Z,6.80
2017-11-01T16:57:05.261Z,9.23
2017-11-01T16:59:33.874Z,8.60
2017-11-01T17:02:02.404Z,6.47
2017-11-01T17:04:30.944Z,12.57
2017-11-01T17:06:59.601Z,7.73
2017-11-01T17:09:28.061Z,9.27
2017-11-01T17:11:56.637Z,8.43
2017-11-01T17:14:25.165Z,8.00
2017-11-01T17:16:53.691Z,12.67
2017-11-01T17:19:22.316Z,5.43
2017-11-01T17:21:50.661Z,13.80
2017-11-01T17:24:19.910Z,9.10
2017-11-01T17:26:48.191Z,9.47
2017-11-01T17:29:16.470Z,14.60
2017-11-01T17:31:44.756Z,10.67
2017-11-01T17:34:13.041Z,21.13
2017-11-01T17:36:42.111Z,7.50
2017-11-01T17:39:10.504Z,4.57
2017-11-01T17:41:38.806Z,12.03
2017-11-01T17:44:07.096Z,29.80
2017-11-01T17:46:35.374Z,7.07
2017-11-01T17:49:03.664Z,16.97
2017-11-01T17:51:31.938Z,5.73
2017-11-01T17:54:00.221Z,5.83
2017-11-01T17:56:28.495Z,9.77
2017-11-01T17:58:56.823Z,8.60
2017-11-01T18:01:25.101Z,4.50
2017-11-01T18:03:53.387Z,11.83
2017-11-01T18:06:21.734Z,17.83
2017-11-01T18:08:50.010Z,8.07
2017-11-01T18:11:18.337Z,3.60
2017-11-01T18:13:46.669Z,13.73
2017-11-01T18:16:15.711Z,11.57
2017-11-01T18:18:44.178Z,9.30
2017-11-01T18:21:13.371Z,9.63
2017-11-01T18:23:41.872Z,4.43
2017-11-01T18:26:11.298Z,9.90
2017-11-01T18:28:40.095Z,6.70
2017-11-01T18:31:09.140Z,13.83
2017-11-01T18:33:37.427Z,7.17
2017-11-01T18:36:05.738Z,6.00
2017-11-01T18:38:34.027Z,6.17
2017-11-01T18:41:02.319Z,11.63
2017-11-01T18:43:30.595Z,4.50
2017-11-01T18:45:58.870Z,7.80
2017-11-01T18:48:27.204Z,3.23
2017-11-01T18:50:55.481Z,4.87
2017-11-01T18:53:23.790Z,5.27
2017-11-01T18:55:52.835Z,6.73
2017-11-01T18:58:21.132Z,3.53
2017-11-01T19:00:49.413Z,10.00
2017-11-01T19:03:17.695Z,5.03
2017-11-01T19:05:46.003Z,3.50
2017-11-01T19:08:14.300Z,5.13
2017-11-01T19:10:42.590Z,4.00
2017-11-01T19:13:10.868Z,6.47
2017-11-01T19:15:39.190Z,5.07
2017-11-01T19:18:07.501Z,2.57
2017-11-01T19:20:36.582Z,12.70
2017-11-01T19:23:05.027Z,7.20
2017-11-01T19:25:33.345Z,6.87
2017-11-01T19:28:01.892Z,3.50
2017-11-01T19:30:30.936Z,5.80
2017-11-01T19:32:59.267Z,12.37
2017-11-01T19:35:27.580Z,1.77
2017-11-01T19:37:56.626Z,2.13
2017-11-01T19:40:24.973Z,2.67
2017-11-01T19:42:54.033Z,4.30
2017-11-01T19:45:22.420Z,5.17
2017-11-01T19:47:50.699Z,3.97
2017-11-01T19:50:18.973Z,5.00
2017-11-01T19:52:48.026Z,5.80
2017-11-01T19:55:16.341Z,13.33
2017-11-01T19:57:45.422Z,8.53
2017-11-01T20:00:14.642Z,7.00
2017-11-01T20:02:42.950Z,7.37
2017-11-01T20:05:12.003Z,2.57
2017-11-01T20:07:40.522Z,3.83
2017-11-01T20:10:09.623Z,4.33
2017-11-01T20:12:37.908Z,17.40
2017-11-01T20:15:06.226Z,8.27
2017-11-01T20:17:34.987Z,2.63
2017-11-01T20:20:03.463Z,2.53
2017-11-01T20:22:31.733Z,3.70
2017-11-01T20:25:00.043Z,3.47
2017-11-01T20:27:28.465Z,8.40
2017-11-01T20:29:56.867Z,4.97
2017-11-01T20:32:25.266Z,6.50
2017-11-01T20:34:53.632Z,4.77
2017-11-01T20:37:21.975Z,5.10
2017-11-01T20:39:50.301Z,2.03
2017-11-01T20:42:18.667Z,6.40
2017-11-01T20:44:47.058Z,3.77
2017-11-01T20:47:15.409Z,3.43
2017-11-01T20:49:44.544Z,7.53
2017-11-01T20:52:12.927Z,19.67
2017-11-01T20:54:41.255Z,15.10
2017-11-01T20:57:09.631Z,4.10
2017-11-01T20:59:38.003Z,6.50
2017-11-01T21:02:06.389Z,3.87
2017-11-01T21:04:34.785Z,13.70
2017-11-01T21:07:03.238Z,3.70
2017-11-01T21:09:32.386Z,1.30
2017-11-01T21:12:01.569Z,4.73
2017-11-01T21:14:29.883Z,3.90
2017-11-01T21:16:58.928Z,2.83
2017-11-01T21:19:27.251Z,1.30
2017-11-01T21:21:55.615Z,7.90
2017-11-01T21:24:23.902Z,8.83
2017-11-01T21:26:52.189Z,3.90
2017-11-01T21:29:20.482Z,1.83
2017-11-01T21:31:48.773Z,9.00
2017-11-01T21:34:17.102Z,2.70
2017-11-01T21:36:45.472Z,1.53
2017-11-01T21:39:13.768Z,1.60
2017-11-01T21:41:42.073Z,4.63
2017-11-01T21:44:11.264Z,6.40
2017-11-01T21:46:40.323Z,2.60
2017-11-01T21:49:08.598Z,1.83
2017-11-01T21:51:36.888Z,5.77
2017-11-01T21:54:05.194Z,5.93
2017-11-01T21:56:33.511Z,4.30
2017-11-01T21:59:01.916Z,0.93
2017-11-01T22:01:30.232Z,5.93
2017-11-01T22:03:59.275Z,6.23
2017-11-01T22:06:27.550Z,3.53
2017-11-01T22:08:55.836Z,7.93
2017-11-01T22:11:24.159Z,3.87
2017-11-01T22:13:52.574Z,6.73
2017-11-01T22:16:20.841Z,6.03
2017-11-01T22:18:49.121Z,10.00
2017-11-01T22:21:17.402Z,2.70
2017-11-01T22:23:45.683Z,3.20
2017-11-01T22:26:13.987Z,2.30
2017-11-01T22:28:42.280Z,3.47
2017-11-01T22:31:10.587Z,7.07
2017-11-01T22:33:38.880Z,8.50
2017-11-01T22:36:07.179Z,5.97
2017-11-01T22:38:36.222Z,4.83
2017-11-01T22:41:04.535Z,3.83
2017-11-01T22:43:32.831Z,2.10
2017-11-01T22:46:01.102Z,2.27
2017-11-01T22:48:29.515Z,5.83
2017-11-01T22:50:57.795Z,7.00
2017-11-01T22:53:26.066Z,8.47
2017-11-01T22:55:54.356Z,2.00
2017-11-01T22:58:22.666Z,1.43
2017-11-01T23:00:50.962Z,4.90
2017-11-01T23:03:19.307Z,8.33
2017-11-01T23:05:47.606Z,7.77
2017-11-01T23:08:15.917Z,9.30
2017-11-01T23:10:44.210Z,15.30
2017-11-01T23:13:12.505Z,5.87
2017-11-01T23:15:40.810Z,14.40
2017-11-01T23:18:09.096Z,5.00
2017-11-01T23:20:37.378Z,9.10
2017-11-01T23:23:05.682Z,4.40
2017-11-01T23:25:34.726Z,10.30
2017-11-01T23:28:03.062Z,5.50
2017-11-01T23:30:31.378Z,3.17
2017-11-01T23:33:00.427Z,8.00
2017-11-01T23:35:28.715Z,4.97
2017-11-01T23:37:56.992Z,3.23
2017-11-01T23:40:25.299Z,7.77
2017-11-01T23:42:53.594Z,5.37
2017-11-01T23:45:21.858Z,5.70
2017-11-01T23:47:50.182Z,11.97
2017-11-01T23:50:18.463Z,7.70
2017-11-01T23:52:46.787Z,3.00
2017-11-01T23:55:15.843Z,8.97
2017-11-01T23:57:44.175Z,4.47
